sensor_id;sensor_type;location;lat;lon;timestamp;P1;durP1;ratioP1;P2;durP2;ratioP2
33802;SDS011;20110;53.120;5.786;2022-08-25T00:02:03;88.45;;;53.95;;
33802;SDS011;20110;53.120;5.786;2022-08-25T00:04:32;77.88;;;52.92;;
33802;SDS011;20110;53.120;5.786;2022-08-25T00:06:59;80.82;;;51.55;;
33802;SDS011;20110;53.120;5.786;2022-08-25T00:09:28;81.10;;;51.33;;
33802;SDS011;20110;53.120;5.786;2022-08-25T00:11:55;83.00;;;51.33;;
33802;SDS011;20110;53.120;5.786;2022-08-25T00:14:26;86.47;;;52.70;;
33802;SDS011;20110;53.120;5.786;2022-08-25T00:17:00;83.05;;;52.95;;
33802;SDS011;20110;53.120;5.786;2022-08-25T00:19:30;79.60;;;50.47;;
33802;SDS011;20110;53.120;5.786;2022-08-25T00:22:00;85.15;;;52.22;;
33802;SDS011;20110;53.120;5.786;2022-08-25T00:24:28;81.65;;;50.65;;
33802;SDS011;20110;53.120;5.786;2022-08-25T00:26:55;89.22;;;51.58;;
33802;SDS011;20110;53.120;5.786;2022-08-25T00:29:23;84.50;;;50.88;;
33802;SDS011;20110;53.120;5.786;2022-08-25T00:31:51;87.90;;;52.17;;
33802;SDS011;20110;53.120;5.786;2022-08-25T00:34:20;87.38;;;51.80;;
33802;SDS011;20110;53.120;5.786;2022-08-25T00:36:53;87.53;;;51.95;;
33802;SDS011;20110;53.120;5.786;2022-08-25T00:39:20;82.15;;;51.10;;
33802;SDS011;20110;53.120;5.786;2022-08-25T00:41:48;86.68;;;51.58;;
33802;SDS011;20110;53.120;5.786;2022-08-25T00:44:18;83.80;;;53.25;;
33802;SDS011;20110;53.120;5.786;2022-08-25T00:46:46;81.35;;;51.90;;
33802;SDS011;20110;53.120;5.786;2022-08-25T00:49:23;85.05;;;54.67;;
33802;SDS011;20110;53.120;5.786;2022-08-25T00:52:02;74.13;;;49.17;;
33802;SDS011;20110;53.120;5.786;2022-08-25T00:54:43;77.97;;;47.65;;
33802;SDS011;20110;53.120;5.786;2022-08-25T00:57:17;77.20;;;49.15;;
33802;SDS011;20110;53.120;5.786;2022-08-25T00:59:52;79.22;;;50.00;;
33802;SDS011;20110;53.120;5.786;2022-08-25T01:02:18;72.82;;;49.53;;
33802;SDS011;20110;53.120;5.786;2022-08-25T01:04:45;70.25;;;47.28;;
33802;SDS011;20110;53.120;5.786;2022-08-25T01:07:11;83.55;;;48.67;;
33802;SDS011;20110;53.120;5.786;2022-08-25T01:09:41;80.03;;;48.47;;
33802;SDS011;20110;53.120;5.786;2022-08-25T01:12:08;74.30;;;47.30;;
33802;SDS011;20110;53.120;5.786;2022-08-25T01:14:34;79.53;;;47.58;;
33802;SDS011;20110;53.120;5.786;2022-08-25T01:17:02;79.85;;;48.72;;
33802;SDS011;20110;53.120;5.786;2022-08-25T01:19:29;74.03;;;44.53;;
33802;SDS011;20110;53.120;5.786;2022-08-25T01:21:57;75.07;;;44.20;;
33802;SDS011;20110;53.120;5.786;2022-08-25T01:27:07;72.47;;;46.30;;
33802;SDS011;20110;53.120;5.786;2022-08-25T01:29:34;74.20;;;44.42;;
33802;SDS011;20110;53.120;5.786;2022-08-25T01:32:04;70.65;;;46.78;;
33802;SDS011;20110;53.120;5.786;2022-08-25T01:34:35;70.68;;;44.50;;
33802;SDS011;20110;53.120;5.786;2022-08-25T01:37:08;76.35;;;44.53;;
33802;SDS011;20110;53.120;5.786;2022-08-25T01:39:36;70.40;;;46.75;;
33802;SDS011;20110;53.120;5.786;2022-08-25T01:44:31;72.57;;;47.08;;
33802;SDS011;20110;53.120;5.786;2022-08-25T01:47:01;78.20;;;46.35;;
33802;SDS011;20110;53.120;5.786;2022-08-25T01:49:28;75.57;;;47.53;;
33802;SDS011;20110;53.120;5.786;2022-08-25T01:52:05;75.13;;;46.17;;
33802;SDS011;20110;53.120;5.786;2022-08-25T01:54:49;77.53;;;46.53;;
33802;SDS011;20110;53.120;5.786;2022-08-25T01:57:15;70.15;;;43.92;;
33802;SDS011;20110;53.120;5.786;2022-08-25T01:59:41;68.55;;;42.95;;
33802;SDS011;20110;53.120;5.786;2022-08-25T02:02:07;72.20;;;45.83;;
33802;SDS011;20110;53.120;5.786;2022-08-25T02:04:33;67.88;;;42.90;;
33802;SDS011;20110;53.120;5.786;2022-08-25T02:07:00;63.33;;;41.38;;
33802;SDS011;20110;53.120;5.786;2022-08-25T02:09:28;63.20;;;41.35;;
33802;SDS011;20110;53.120;5.786;2022-08-25T02:11:54;55.47;;;36.20;;
33802;SDS011;20110;53.120;5.786;2022-08-25T02:14:22;58.22;;;36.67;;
33802;SDS011;20110;53.120;5.786;2022-08-25T02:16:49;56.83;;;35.80;;
33802;SDS011;20110;53.120;5.786;2022-08-25T02:19:17;49.15;;;33.72;;
33802;SDS011;20110;53.120;5.786;2022-08-25T02:21:46;45.03;;;30.83;;
33802;SDS011;20110;53.120;5.786;2022-08-25T02:24:12;49.85;;;29.92;;
33802;SDS011;20110;53.120;5.786;2022-08-25T02:26:39;49.50;;;28.60;;
33802;SDS011;20110;53.120;5.786;2022-08-25T02:29:06;44.03;;;29.73;;
33802;SDS011;20110;53.120;5.786;2022-08-25T02:31:33;36.20;;;26.75;;
33802;SDS011;20110;53.120;5.786;2022-08-25T02:33:59;38.83;;;25.50;;
33802;SDS011;20110;53.120;5.786;2022-08-25T02:36:26;37.63;;;25.20;;
33802;SDS011;20110;53.120;5.786;2022-08-25T02:38:53;31.40;;;23.80;;
33802;SDS011;20110;53.120;5.786;2022-08-25T02:41:20;31.10;;;23.45;;
33802;SDS011;20110;53.120;5.786;2022-08-25T02:43:48;28.13;;;20.05;;
33802;SDS011;20110;53.120;5.786;2022-08-25T02:46:15;30.08;;;20.52;;
33802;SDS011;20110;53.120;5.786;2022-08-25T02:48:44;24.88;;;19.48;;
33802;SDS011;20110;53.120;5.786;2022-08-25T02:51:11;25.10;;;18.50;;
33802;SDS011;20110;53.120;5.786;2022-08-25T02:53:38;21.77;;;17.83;;
33802;SDS011;20110;53.120;5.786;2022-08-25T02:56:07;25.80;;;18.13;;
33802;SDS011;20110;53.120;5.786;2022-08-25T02:58:35;18.27;;;15.77;;
33802;SDS011;20110;53.120;5.786;2022-08-25T03:01:03;26.20;;;17.38;;
33802;SDS011;20110;53.120;5.786;2022-08-25T03:03:31;27.05;;;16.75;;
33802;SDS011;20110;53.120;5.786;2022-08-25T03:05:58;19.33;;;14.18;;
33802;SDS011;20110;53.120;5.786;2022-08-25T03:08:25;20.55;;;15.40;;
33802;SDS011;20110;53.120;5.786;2022-08-25T03:10:51;20.30;;;13.80;;
33802;SDS011;20110;53.120;5.786;2022-08-25T03:13:17;18.60;;;13.63;;
33802;SDS011;20110;53.120;5.786;2022-08-25T03:15:43;18.17;;;13.05;;
33802;SDS011;20110;53.120;5.786;2022-08-25T03:18:10;20.60;;;11.80;;
33802;SDS011;20110;53.120;5.786;2022-08-25T03:20:36;15.95;;;13.00;;
33802;SDS011;20110;53.120;5.786;2022-08-25T03:23:04;22.23;;;13.00;;
33802;SDS011;20110;53.120;5.786;2022-08-25T03:25:31;16.42;;;11.90;;
33802;SDS011;20110;53.120;5.786;2022-08-25T03:28:27;23.52;;;12.35;;
33802;SDS011;20110;53.120;5.786;2022-08-25T03:30:57;12.73;;;11.25;;
33802;SDS011;20110;53.120;5.786;2022-08-25T03:33:28;16.38;;;11.07;;
33802;SDS011;20110;53.120;5.786;2022-08-25T03:35:55;17.67;;;11.15;;
33802;SDS011;20110;53.120;5.786;2022-08-25T03:38:22;16.33;;;10.73;;
33802;SDS011;20110;53.120;5.786;2022-08-25T03:40:49;15.93;;;10.43;;
33802;SDS011;20110;53.120;5.786;2022-08-25T03:43:16;11.40;;;10.20;;
33802;SDS011;20110;53.120;5.786;2022-08-25T03:45:43;15.68;;;10.50;;
33802;SDS011;20110;53.120;5.786;2022-08-25T03:48:10;11.00;;;9.60;;
33802;SDS011;20110;53.120;5.786;2022-08-25T03:50:36;12.90;;;9.57;;
33802;SDS011;20110;53.120;5.786;2022-08-25T03:53:08;11.07;;;8.68;;
33802;SDS011;20110;53.120;5.786;2022-08-25T03:55:34;12.00;;;9.73;;
33802;SDS011;20110;53.120;5.786;2022-08-25T03:58:00;11.23;;;8.50;;
33802;SDS011;20110;53.120;5.786;2022-08-25T04:00:26;10.68;;;8.55;;
33802;SDS011;20110;53.120;5.786;2022-08-25T04:02:51;8.98;;;8.18;;
33802;SDS011;20110;53.120;5.786;2022-08-25T04:05:19;12.48;;;7.43;;
33802;SDS011;20110;53.120;5.786;2022-08-25T04:07:44;18.33;;;8.48;;
33802;SDS011;20110;53.120;5.786;2022-08-25T04:10:11;9.40;;;7.47;;
33802;SDS011;20110;53.120;5.786;2022-08-25T04:12:37;10.27;;;7.05;;
33802;SDS011;20110;53.120;5.786;2022-08-25T04:15:04;16.50;;;7.00;;
33802;SDS011;20110;53.120;5.786;2022-08-25T04:17:32;8.55;;;6.97;;
33802;SDS011;20110;53.120;5.786;2022-08-25T04:20:00;12.98;;;6.63;;
33802;SDS011;20110;53.120;5.786;2022-08-25T04:22:26;10.57;;;6.30;;
33802;SDS011;20110;53.120;5.786;2022-08-25T04:24:52;7.97;;;6.63;;
33802;SDS011;20110;53.120;5.786;2022-08-25T04:27:18;9.93;;;7.07;;
33802;SDS011;20110;53.120;5.786;2022-08-25T04:29:44;5.97;;;5.38;;
33802;SDS011;20110;53.120;5.786;2022-08-25T04:32:10;7.05;;;6.15;;
33802;SDS011;20110;53.120;5.786;2022-08-25T04:34:36;6.82;;;6.13;;
33802;SDS011;20110;53.120;5.786;2022-08-25T04:37:02;8.75;;;6.05;;
33802;SDS011;20110;53.120;5.786;2022-08-25T04:39:31;7.25;;;5.53;;
33802;SDS011;20110;53.120;5.786;2022-08-25T04:41:58;12.05;;;6.47;;
33802;SDS011;20110;53.120;5.786;2022-08-25T04:44:24;7.57;;;5.18;;
33802;SDS011;20110;53.120;5.786;2022-08-25T04:46:50;7.85;;;4.93;;
33802;SDS011;20110;53.120;5.786;2022-08-25T04:49:17;10.93;;;5.80;;
33802;SDS011;20110;53.120;5.786;2022-08-25T04:51:43;9.40;;;5.63;;
33802;SDS011;20110;53.120;5.786;2022-08-25T04:54:11;8.82;;;4.88;;
33802;SDS011;20110;53.120;5.786;2022-08-25T04:56:41;6.30;;;4.93;;
33802;SDS011;20110;53.120;5.786;2022-08-25T04:59:09;7.85;;;5.40;;
33802;SDS011;20110;53.120;5.786;2022-08-25T05:01:37;6.80;;;6.10;;
33802;SDS011;20110;53.120;5.786;2022-08-25T05:04:05;10.63;;;6.15;;
33802;SDS011;20110;53.120;5.786;2022-08-25T05:06:33;12.70;;;6.45;;
33802;SDS011;20110;53.120;5.786;2022-08-25T05:09:00;7.13;;;6.00;;
33802;SDS011;20110;53.120;5.786;2022-08-25T05:11:27;8.10;;;6.72;;
33802;SDS011;20110;53.120;5.786;2022-08-25T05:13:53;7.90;;;5.78;;
33802;SDS011;20110;53.120;5.786;2022-08-25T05:16:21;6.70;;;6.05;;
33802;SDS011;20110;53.120;5.786;2022-08-25T05:18:54;15.13;;;5.80;;
33802;SDS011;20110;53.120;5.786;2022-08-25T05:21:22;8.18;;;5.30;;
33802;SDS011;20110;53.120;5.786;2022-08-25T05:23:57;10.55;;;5.65;;
33802;SDS011;20110;53.120;5.786;2022-08-25T05:26:26;6.57;;;5.47;;
33802;SDS011;20110;53.120;5.786;2022-08-25T05:28:55;8.85;;;5.78;;
33802;SDS011;20110;53.120;5.786;2022-08-25T05:31:24;6.93;;;5.28;;
33802;SDS011;20110;53.120;5.786;2022-08-25T05:33:52;10.68;;;4.70;;
33802;SDS011;20110;53.120;5.786;2022-08-25T05:36:20;13.38;;;5.35;;
33802;SDS011;20110;53.120;5.786;2022-08-25T05:38:48;7.78;;;5.03;;
33802;SDS011;20110;53.120;5.786;2022-08-25T05:41:19;12.55;;;4.68;;
33802;SDS011;20110;53.120;5.786;2022-08-25T05:43:51;9.68;;;5.70;;
33802;SDS011;20110;53.120;5.786;2022-08-25T05:46:17;9.73;;;5.13;;
33802;SDS011;20110;53.120;5.786;2022-08-25T05:48:45;6.20;;;5.32;;
33802;SDS011;20110;53.120;5.786;2022-08-25T05:51:12;9.48;;;5.03;;
33802;SDS011;20110;53.120;5.786;2022-08-25T05:53:41;5.47;;;4.97;;
33802;SDS011;20110;53.120;5.786;2022-08-25T05:56:10;6.43;;;4.72;;
33802;SDS011;20110;53.120;5.786;2022-08-25T05:58:38;5.82;;;4.57;;
33802;SDS011;20110;53.120;5.786;2022-08-25T06:01:06;6.90;;;4.32;;
33802;SDS011;20110;53.120;5.786;2022-08-25T06:03:51;6.40;;;4.07;;
33802;SDS011;20110;53.120;5.786;2022-08-25T06:06:21;7.20;;;4.50;;
33802;SDS011;20110;53.120;5.786;2022-08-25T06:08:48;6.57;;;4.85;;
33802;SDS011;20110;53.120;5.786;2022-08-25T06:11:14;6.13;;;4.10;;
33802;SDS011;20110;53.120;5.786;2022-08-25T06:13:40;4.85;;;4.15;;
33802;SDS011;20110;53.120;5.786;2022-08-25T06:16:07;14.85;;;5.75;;
33802;SDS011;20110;53.120;5.786;2022-08-25T06:18:32;9.35;;;4.43;;
33802;SDS011;20110;53.120;5.786;2022-08-25T06:20:58;4.93;;;4.30;;
33802;SDS011;20110;53.120;5.786;2022-08-25T06:23:36;5.78;;;4.43;;
33802;SDS011;20110;53.120;5.786;2022-08-25T06:26:04;6.07;;;4.35;;
33802;SDS011;20110;53.120;5.786;2022-08-25T06:28:30;13.52;;;3.90;;
33802;SDS011;20110;53.120;5.786;2022-08-25T06:30:59;8.98;;;3.78;;
33802;SDS011;20110;53.120;5.786;2022-08-25T06:33:26;6.57;;;4.13;;
33802;SDS011;20110;53.120;5.786;2022-08-25T06:35:53;7.65;;;3.78;;
33802;SDS011;20110;53.120;5.786;2022-08-25T06:38:20;6.32;;;4.38;;
33802;SDS011;20110;53.120;5.786;2022-08-25T06:40:47;5.53;;;4.18;;
33802;SDS011;20110;53.120;5.786;2022-08-25T06:43:13;3.85;;;3.53;;
33802;SDS011;20110;53.120;5.786;2022-08-25T06:45:39;5.03;;;4.00;;
33802;SDS011;20110;53.120;5.786;2022-08-25T06:48:07;5.10;;;4.15;;
33802;SDS011;20110;53.120;5.786;2022-08-25T06:50:33;4.85;;;3.45;;
33802;SDS011;20110;53.120;5.786;2022-08-25T06:52:58;5.60;;;3.75;;
33802;SDS011;20110;53.120;5.786;2022-08-25T06:55:24;7.70;;;4.47;;
33802;SDS011;20110;53.120;5.786;2022-08-25T06:57:53;9.02;;;4.40;;
33802;SDS011;20110;53.120;5.786;2022-08-25T07:00:19;5.20;;;4.00;;
33802;SDS011;20110;53.120;5.786;2022-08-25T07:02:45;5.03;;;4.55;;
33802;SDS011;20110;53.120;5.786;2022-08-25T07:05:11;6.60;;;4.03;;
33802;SDS011;20110;53.120;5.786;2022-08-25T07:07:37;14.43;;;4.00;;
33802;SDS011;20110;53.120;5.786;2022-08-25T07:10:03;7.45;;;4.28;;
33802;SDS011;20110;53.120;5.786;2022-08-25T07:12:30;4.93;;;3.80;;
33802;SDS011;20110;53.120;5.786;2022-08-25T07:14:56;6.78;;;4.10;;
33802;SDS011;20110;53.120;5.786;2022-08-25T07:17:21;6.55;;;3.90;;
33802;SDS011;20110;53.120;5.786;2022-08-25T07:19:47;8.18;;;3.78;;
33802;SDS011;20110;53.120;5.786;2022-08-25T07:22:14;5.07;;;3.92;;
33802;SDS011;20110;53.120;5.786;2022-08-25T07:24:40;5.30;;;4.00;;
33802;SDS011;20110;53.120;5.786;2022-08-25T07:27:06;9.57;;;4.15;;
33802;SDS011;20110;53.120;5.786;2022-08-25T07:29:32;5.10;;;3.95;;
33802;SDS011;20110;53.120;5.786;2022-08-25T07:32:00;4.93;;;3.72;;
33802;SDS011;20110;53.120;5.786;2022-08-25T07:34:29;4.63;;;3.38;;
33802;SDS011;20110;53.120;5.786;2022-08-25T07:37:14;7.80;;;3.53;;
33802;SDS011;20110;53.120;5.786;2022-08-25T07:39:40;10.05;;;3.60;;
33802;SDS011;20110;53.120;5.786;2022-08-25T07:42:06;4.93;;;3.60;;
33802;SDS011;20110;53.120;5.786;2022-08-25T07:44:33;6.38;;;3.50;;
33802;SDS011;20110;53.120;5.786;2022-08-25T07:46:59;5.65;;;3.78;;
33802;SDS011;20110;53.120;5.786;2022-08-25T07:49:25;10.95;;;3.90;;
33802;SDS011;20110;53.120;5.786;2022-08-25T07:51:52;16.15;;;3.25;;
33802;SDS011;20110;53.120;5.786;2022-08-25T07:54:19;9.50;;;3.03;;
33802;SDS011;20110;53.120;5.786;2022-08-25T07:56:45;5.68;;;3.30;;
33802;SDS011;20110;53.120;5.786;2022-08-25T07:59:11;8.32;;;3.90;;
33802;SDS011;20110;53.120;5.786;2022-08-25T08:01:37;7.18;;;3.20;;
33802;SDS011;20110;53.120;5.786;2022-08-25T08:04:04;4.50;;;3.33;;
33802;SDS011;20110;53.120;5.786;2022-08-25T08:06:30;3.88;;;2.42;;
33802;SDS011;20110;53.120;5.786;2022-08-25T08:08:56;5.82;;;2.90;;
33802;SDS011;20110;53.120;5.786;2022-08-25T08:11:27;3.88;;;3.30;;
33802;SDS011;20110;53.120;5.786;2022-08-25T08:13:57;3.60;;;2.95;;
33802;SDS011;20110;53.120;5.786;2022-08-25T08:16:26;7.63;;;2.92;;
33802;SDS011;20110;53.120;5.786;2022-08-25T08:18:54;11.27;;;3.65;;
33802;SDS011;20110;53.120;5.786;2022-08-25T08:21:22;4.65;;;3.20;;
33802;SDS011;20110;53.120;5.786;2022-08-25T08:23:51;5.60;;;3.35;;
33802;SDS011;20110;53.120;5.786;2022-08-25T08:26:18;5.22;;;2.47;;
33802;SDS011;20110;53.120;5.786;2022-08-25T08:28:45;7.20;;;2.97;;
33802;SDS011;20110;53.120;5.786;2022-08-25T08:31:11;5.47;;;3.65;;
33802;SDS011;20110;53.120;5.786;2022-08-25T08:33:37;4.85;;;2.60;;
33802;SDS011;20110;53.120;5.786;2022-08-25T08:36:04;6.63;;;2.80;;
33802;SDS011;20110;53.120;5.786;2022-08-25T08:38:36;7.20;;;3.13;;
33802;SDS011;20110;53.120;5.786;2022-08-25T08:47:14;6.20;;;2.60;;
33802;SDS011;20110;53.120;5.786;2022-08-25T08:50:17;7.78;;;2.33;;
33802;SDS011;20110;53.120;5.786;2022-08-25T08:52:56;8.20;;;2.60;;
33802;SDS011;20110;53.120;5.786;2022-08-25T08:55:34;4.70;;;2.40;;
33802;SDS011;20110;53.120;5.786;2022-08-25T08:58:08;5.00;;;2.92;;
33802;SDS011;20110;53.120;5.786;2022-08-25T09:00:44;2.78;;;2.22;;
33802;SDS011;20110;53.120;5.786;2022-08-25T09:06:11;4.22;;;2.53;;
33802;SDS011;20110;53.120;5.786;2022-08-25T09:11:24;5.30;;;2.10;;
33802;SDS011;20110;53.120;5.786;2022-08-25T09:16:52;3.35;;;2.00;;
33802;SDS011;20110;53.120;5.786;2022-08-25T09:22:34;6.43;;;2.67;;
33802;SDS011;20110;53.120;5.786;2022-08-25T09:28:49;15.18;;;2.67;;
33802;SDS011;20110;53.120;5.786;2022-08-25T09:31:44;3.70;;;2.28;;
33802;SDS011;20110;53.120;5.786;2022-08-25T09:34:15;3.17;;;2.33;;
33802;SDS011;20110;53.120;5.786;2022-08-25T09:36:43;4.75;;;2.60;;
33802;SDS011;20110;53.120;5.786;2022-08-25T09:39:12;4.15;;;2.45;;
33802;SDS011;20110;53.120;5.786;2022-08-25T09:41:43;7.60;;;2.20;;
33802;SDS011;20110;53.120;5.786;2022-08-25T09:49:43;8.27;;;1.77;;
33802;SDS011;20110;53.120;5.786;2022-08-25T09:52:28;2.65;;;1.75;;
33802;SDS011;20110;53.120;5.786;2022-08-25T10:00:17;3.58;;;1.40;;
33802;SDS011;20110;53.120;5.786;2022-08-25T10:02:44;2.95;;;1.85;;
33802;SDS011;20110;53.120;5.786;2022-08-25T10:05:28;4.40;;;2.05;;
33802;SDS011;20110;53.120;5.786;2022-08-25T10:08:51;4.90;;;2.50;;
33802;SDS011;20110;53.120;5.786;2022-08-25T10:11:11;1.98;;;1.85;;
33802;SDS011;20110;53.120;5.786;2022-08-25T10:14:00;1.90;;;1.70;;
33802;SDS011;20110;53.120;5.786;2022-08-25T10:16:31;3.83;;;1.90;;
33802;SDS011;20110;53.120;5.786;2022-08-25T10:21:34;6.15;;;1.67;;
33802;SDS011;20110;53.120;5.786;2022-08-25T10:24:10;3.13;;;1.80;;
33802;SDS011;20110;53.120;5.786;2022-08-25T10:38:59;4.82;;;1.15;;
33802;SDS011;20110;53.120;5.786;2022-08-25T11:05:02;1.63;;;1.40;;
33802;SDS011;20110;53.120;5.786;2022-08-25T11:07:45;2.42;;;1.50;;
33802;SDS011;20110;53.120;5.786;2022-08-25T11:10:16;6.40;;;1.40;;
33802;SDS011;20110;53.120;5.786;2022-08-25T11:13:03;2.83;;;1.00;;
33802;SDS011;20110;53.120;5.786;2022-08-25T11:15:44;5.70;;;1.60;;
33802;SDS011;20110;53.120;5.786;2022-08-25T11:18:20;2.92;;;1.77;;
33802;SDS011;20110;53.120;5.786;2022-08-25T11:23:58;4.75;;;1.65;;
33802;SDS011;20110;53.120;5.786;2022-08-25T11:26:50;4.30;;;1.10;;
33802;SDS011;20110;53.120;5.786;2022-08-25T11:29:21;4.07;;;1.90;;
33802;SDS011;20110;53.120;5.786;2022-08-25T11:31:57;1.90;;;1.52;;
33802;SDS011;20110;53.120;5.786;2022-08-25T11:34:29;4.78;;;1.83;;
33802;SDS011;20110;53.120;5.786;2022-08-25T11:37:00;6.47;;;1.63;;
33802;SDS011;20110;53.120;5.786;2022-08-25T11:39:46;2.58;;;1.67;;
33802;SDS011;20110;53.120;5.786;2022-08-25T11:48:36;3.45;;;1.77;;
33802;SDS011;20110;53.120;5.786;2022-08-25T11:51:40;2.42;;;1.48;;
33802;SDS011;20110;53.120;5.786;2022-08-25T11:54:27;4.20;;;1.80;;
33802;SDS011;20110;53.120;5.786;2022-08-25T11:57:09;4.10;;;1.63;;
33802;SDS011;20110;53.120;5.786;2022-08-25T12:04:56;4.82;;;1.75;;
33802;SDS011;20110;53.120;5.786;2022-08-25T12:07:26;3.22;;;2.00;;
33802;SDS011;20110;53.120;5.786;2022-08-25T12:13:43;2.20;;;1.73;;
33802;SDS011;20110;53.120;5.786;2022-08-25T12:40:28;1.83;;;1.38;;
33802;SDS011;20110;53.120;5.786;2022-08-25T12:45:45;1.67;;;1.55;;
33802;SDS011;20110;53.120;5.786;2022-08-25T12:50:58;1.60;;;1.50;;
33802;SDS011;20110;53.120;5.786;2022-08-25T12:56:17;1.65;;;1.55;;
33802;SDS011;20110;53.120;5.786;2022-08-25T13:10:13;3.65;;;1.92;;
33802;SDS011;20110;53.120;5.786;2022-08-25T13:13:15;5.07;;;1.90;;
33802;SDS011;20110;53.120;5.786;2022-08-25T13:15:57;1.30;;;1.20;;
33802;SDS011;20110;53.120;5.786;2022-08-25T13:18:34;1.50;;;1.30;;
33802;SDS011;20110;53.120;5.786;2022-08-25T13:21:45;5.75;;;1.98;;
33802;SDS011;20110;53.120;5.786;2022-08-25T13:24:00;7.35;;;1.65;;
33802;SDS011;20110;53.120;5.786;2022-08-25T13:26:32;3.65;;;1.52;;
33802;SDS011;20110;53.120;5.786;2022-08-25T13:31:32;1.77;;;1.33;;
33802;SDS011;20110;53.120;5.786;2022-08-25T13:34:06;3.63;;;1.48;;
33802;SDS011;20110;53.120;5.786;2022-08-25T13:36:44;3.75;;;1.52;;
33802;SDS011;20110;53.120;5.786;2022-08-25T13:39:31;6.65;;;1.33;;
33802;SDS011;20110;53.120;5.786;2022-08-25T13:41:59;1.58;;;1.48;;
33802;SDS011;20110;53.120;5.786;2022-08-25T13:44:29;2.25;;;1.52;;
33802;SDS011;20110;53.120;5.786;2022-08-25T13:47:13;1.98;;;1.77;;
33802;SDS011;20110;53.120;5.786;2022-08-25T13:49:45;5.28;;;1.48;;
33802;SDS011;20110;53.120;5.786;2022-08-25T13:52:22;4.30;;;1.75;;
33802;SDS011;20110;53.120;5.786;2022-08-25T13:54:56;1.60;;;1.50;;
33802;SDS011;20110;53.120;5.786;2022-08-25T13:57:25;3.05;;;1.70;;
33802;SDS011;20110;53.120;5.786;2022-08-25T14:00:05;5.68;;;1.60;;
33802;SDS011;20110;53.120;5.786;2022-08-25T14:02:48;3.38;;;1.75;;
33802;SDS011;20110;53.120;5.786;2022-08-25T14:08:07;3.25;;;1.58;;
33802;SDS011;20110;53.120;5.786;2022-08-25T14:11:06;5.32;;;1.48;;
33802;SDS011;20110;53.120;5.786;2022-08-25T14:13:39;3.72;;;1.70;;
33802;SDS011;20110;53.120;5.786;2022-08-25T14:16:17;1.83;;;1.20;;
33802;SDS011;20110;53.120;5.786;2022-08-25T14:18:51;1.55;;;1.45;;
33802;SDS011;20110;53.120;5.786;2022-08-25T14:21:26;2.03;;;1.42;;
33802;SDS011;20110;53.120;5.786;2022-08-25T14:23:55;2.70;;;1.42;;
33802;SDS011;20110;53.120;5.786;2022-08-25T14:26:23;6.40;;;1.70;;
33802;SDS011;20110;53.120;5.786;2022-08-25T14:28:50;6.25;;;1.50;;
33802;SDS011;20110;53.120;5.786;2022-08-25T14:34:05;6.93;;;1.50;;
33802;SDS011;20110;53.120;5.786;2022-08-25T14:36:39;3.85;;;1.95;;
33802;SDS011;20110;53.120;5.786;2022-08-25T14:39:06;2.33;;;1.60;;
33802;SDS011;20110;53.120;5.786;2022-08-25T14:41:33;1.85;;;1.65;;
33802;SDS011;20110;53.120;5.786;2022-08-25T14:44:01;2.83;;;1.85;;
33802;SDS011;20110;53.120;5.786;2022-08-25T14:46:30;2.53;;;1.45;;
33802;SDS011;20110;53.120;5.786;2022-08-25T14:49:05;1.50;;;1.40;;
33802;SDS011;20110;53.120;5.786;2022-08-25T14:51:37;2.55;;;1.85;;
33802;SDS011;20110;53.120;5.786;2022-08-25T14:54:06;2.20;;;1.60;;
33802;SDS011;20110;53.120;5.786;2022-08-25T14:56:37;1.85;;;1.42;;
33802;SDS011;20110;53.120;5.786;2022-08-25T14:59:04;3.13;;;1.30;;
33802;SDS011;20110;53.120;5.786;2022-08-25T15:01:29;2.08;;;1.65;;
33802;SDS011;20110;53.120;5.786;2022-08-25T15:03:57;1.83;;;1.38;;
33802;SDS011;20110;53.120;5.786;2022-08-25T15:06:32;6.07;;;1.42;;
33802;SDS011;20110;53.120;5.786;2022-08-25T15:09:00;4.07;;;1.35;;
33802;SDS011;20110;53.120;5.786;2022-08-25T15:11:41;2.42;;;1.50;;
33802;SDS011;20110;53.120;5.786;2022-08-25T15:14:12;2.97;;;2.20;;
33802;SDS011;20110;53.120;5.786;2022-08-25T15:16:41;2.10;;;1.60;;
33802;SDS011;20110;53.120;5.786;2022-08-25T15:19:15;1.50;;;1.40;;
33802;SDS011;20110;53.120;5.786;2022-08-25T15:21:45;2.42;;;1.50;;
33802;SDS011;20110;53.120;5.786;2022-08-25T15:24:12;2.80;;;1.30;;
33802;SDS011;20110;53.120;5.786;2022-08-25T15:26:59;7.18;;;1.77;;
33802;SDS011;20110;53.120;5.786;2022-08-25T15:29:30;3.50;;;1.40;;
33802;SDS011;20110;53.120;5.786;2022-08-25T15:32:00;1.40;;;1.30;;
33802;SDS011;20110;53.120;5.786;2022-08-25T15:34:28;4.65;;;1.40;;
33802;SDS011;20110;53.120;5.786;2022-08-25T15:36:55;4.18;;;1.92;;
33802;SDS011;20110;53.120;5.786;2022-08-25T15:39:23;2.20;;;1.80;;
33802;SDS011;20110;53.120;5.786;2022-08-25T15:41:49;3.95;;;1.75;;
33802;SDS011;20110;53.120;5.786;2022-08-25T15:44:16;3.38;;;1.40;;
33802;SDS011;20110;53.120;5.786;2022-08-25T15:46:43;3.03;;;1.50;;
33802;SDS011;20110;53.120;5.786;2022-08-25T15:49:10;2.42;;;1.25;;
33802;SDS011;20110;53.120;5.786;2022-08-25T15:51:36;2.00;;;1.42;;
33802;SDS011;20110;53.120;5.786;2022-08-25T15:54:02;1.67;;;1.33;;
33802;SDS011;20110;53.120;5.786;2022-08-25T15:56:28;8.40;;;1.25;;
33802;SDS011;20110;53.120;5.786;2022-08-25T15:58:55;1.52;;;1.30;;
33802;SDS011;20110;53.120;5.786;2022-08-25T16:01:25;4.60;;;1.40;;
33802;SDS011;20110;53.120;5.786;2022-08-25T16:03:53;3.78;;;1.42;;
33802;SDS011;20110;53.120;5.786;2022-08-25T16:06:19;2.92;;;1.50;;
33802;SDS011;20110;53.120;5.786;2022-08-25T16:08:45;3.05;;;1.50;;
33802;SDS011;20110;53.120;5.786;2022-08-25T16:11:16;4.28;;;1.77;;
33802;SDS011;20110;53.120;5.786;2022-08-25T16:13:47;3.90;;;1.30;;
33802;SDS011;20110;53.120;5.786;2022-08-25T16:16:14;8.50;;;1.92;;
33802;SDS011;20110;53.120;5.786;2022-08-25T16:18:43;5.63;;;1.77;;
33802;SDS011;20110;53.120;5.786;2022-08-25T16:21:10;3.42;;;1.83;;
33802;SDS011;20110;53.120;5.786;2022-08-25T16:23:39;2.00;;;1.58;;
33802;SDS011;20110;53.120;5.786;2022-08-25T16:26:06;1.98;;;1.20;;
33802;SDS011;20110;53.120;5.786;2022-08-25T16:28:34;2.33;;;1.27;;
33802;SDS011;20110;53.120;5.786;2022-08-25T16:31:05;4.15;;;1.35;;
33802;SDS011;20110;53.120;5.786;2022-08-25T16:33:34;2.45;;;1.40;;
33802;SDS011;20110;53.120;5.786;2022-08-25T16:36:07;1.50;;;1.20;;
33802;SDS011;20110;53.120;5.786;2022-08-25T16:41:05;3.58;;;1.85;;
33802;SDS011;20110;53.120;5.786;2022-08-25T16:43:33;2.10;;;1.13;;
33802;SDS011;20110;53.120;5.786;2022-08-25T16:46:01;3.30;;;1.48;;
33802;SDS011;20110;53.120;5.786;2022-08-25T16:48:30;3.47;;;1.65;;
33802;SDS011;20110;53.120;5.786;2022-08-25T16:50:56;1.88;;;1.48;;
33802;SDS011;20110;53.120;5.786;2022-08-25T16:53:22;1.77;;;1.30;;
33802;SDS011;20110;53.120;5.786;2022-08-25T16:56:07;3.00;;;1.38;;
33802;SDS011;20110;53.120;5.786;2022-08-25T16:58:33;2.65;;;1.40;;
33802;SDS011;20110;53.120;5.786;2022-08-25T17:01:07;2.78;;;1.80;;
33802;SDS011;20110;53.120;5.786;2022-08-25T17:03:37;2.97;;;1.77;;
33802;SDS011;20110;53.120;5.786;2022-08-25T17:06:06;6.90;;;1.90;;
33802;SDS011;20110;53.120;5.786;2022-08-25T17:08:33;7.57;;;1.83;;
33802;SDS011;20110;53.120;5.786;2022-08-25T17:13:36;2.38;;;1.33;;
33802;SDS011;20110;53.120;5.786;2022-08-25T17:16:06;3.72;;;1.98;;
33802;SDS011;20110;53.120;5.786;2022-08-25T17:18:33;12.48;;;2.35;;
33802;SDS011;20110;53.120;5.786;2022-08-25T17:21:03;2.45;;;1.52;;
33802;SDS011;20110;53.120;5.786;2022-08-25T17:23:33;1.80;;;1.33;;
33802;SDS011;20110;53.120;5.786;2022-08-25T17:26:01;1.55;;;1.33;;
33802;SDS011;20110;53.120;5.786;2022-08-25T17:28:29;1.75;;;1.40;;
33802;SDS011;20110;53.120;5.786;2022-08-25T17:30:55;5.53;;;2.25;;